createdAt,value
2023-03-06T00:03:42.089Z,75.53
2023-03-06T00:08:45.292Z,75.89
2023-03-06T00:13:48.343Z,76.19
2023-03-06T00:18:52.134Z,76.25
2023-03-06T00:23:55.063Z,76.46
2023-03-06T00:28:58.276Z,76.32
2023-03-06T00:34:02.279Z,76.00
2023-03-06T00:39:05.420Z,76.07
2023-03-06T00:44:08.616Z,76.11
2023-03-06T00:49:11.725Z,75.99
2023-03-06T00:54:17.266Z,76.41
2023-03-06T00:59:48.435Z,76.54
2023-03-06T01:04:54.392Z,76.55
2023-03-06T01:09:57.498Z,77.29
2023-03-06T01:15:00.626Z,77.11
2023-03-06T01:20:05.470Z,77.03
2023-03-06T01:25:09.394Z,76.93
2023-03-06T01:30:13.312Z,77.47
2023-03-06T01:35:19.796Z,77.83
2023-03-06T01:40:23.072Z,77.96
2023-03-06T01:45:26.328Z,78.01
2023-03-06T01:50:29.628Z,77.83
2023-03-06T01:55:35.201Z,77.94
2023-03-06T02:00:38.556Z,78.13
2023-03-06T02:05:43.917Z,78.39
2023-03-06T02:11:05.306Z,78.24
2023-03-06T02:16:10.294Z,78.29
2023-03-06T02:21:23.128Z,78.58
2023-03-06T02:26:28.695Z,78.58
2023-03-06T02:31:33.748Z,79.02
2023-03-06T02:36:45.792Z,78.71
2023-03-06T02:41:49.117Z,78.54
2023-03-06T02:46:52.575Z,78.80
2023-03-06T02:51:55.700Z,78.96
2023-03-06T02:56:58.801Z,79.39
2023-03-06T03:02:02.066Z,79.39
2023-03-06T03:07:05.304Z,79.76
2023-03-06T03:12:09.052Z,79.53
2023-03-06T03:17:12.017Z,79.39
2023-03-06T03:22:15.306Z,79.25
2023-03-06T03:27:18.343Z,79.27
2023-03-06T03:32:21.380Z,79.44
2023-03-06T03:37:24.756Z,79.47
2023-03-06T03:42:27.741Z,79.57
2023-03-06T03:47:31.020Z,79.92
2023-03-06T03:52:34.099Z,80.46
2023-03-06T03:57:39.348Z,80.18
2023-03-06T04:02:44.832Z,80.06
2023-03-06T04:07:48.118Z,80.15
2023-03-06T04:13:22.389Z,80.07
2023-03-06T04:18:26.787Z,80.17
2023-03-06T04:23:30.643Z,80.53
2023-03-06T04:28:33.751Z,80.75
2023-03-06T04:33:36.707Z,80.36
2023-03-06T04:38:40.095Z,80.48
2023-03-06T04:43:43.222Z,80.79
2023-03-06T04:48:46.292Z,81.11
2023-03-06T04:53:49.339Z,80.86
2023-03-06T04:58:54.794Z,80.87
2023-03-06T05:03:57.901Z,81.16
2023-03-06T05:09:14.014Z,80.97
2023-03-06T05:14:17.324Z,80.97
2023-03-06T05:19:20.551Z,80.68
2023-03-06T05:24:23.740Z,80.85
2023-03-06T05:29:27.018Z,80.88
2023-03-06T05:34:33.375Z,80.82
2023-03-06T05:39:36.565Z,80.84
2023-03-06T05:44:39.847Z,80.97
2023-03-06T05:49:43.109Z,81.25
2023-03-06T05:54:52.200Z,81.58
2023-03-06T05:59:55.498Z,81.56
2023-03-06T06:04:58.785Z,81.91
2023-03-06T06:10:03.835Z,81.54
2023-03-06T06:15:08.099Z,80.78
2023-03-06T06:20:12.464Z,80.63
2023-03-06T06:25:16.314Z,80.61
2023-03-06T06:30:19.789Z,80.50
2023-03-06T06:35:26.732Z,80.51
2023-03-06T06:40:30.197Z,80.68
2023-03-06T06:45:33.281Z,80.02
2023-03-06T06:50:38.706Z,79.99
2023-03-06T06:55:43.152Z,79.51
2023-03-06T07:00:46.308Z,79.26
2023-03-06T07:05:56.405Z,78.89
2023-03-06T07:11:04.599Z,78.60
2023-03-06T07:16:08.305Z,77.64
2023-03-06T07:21:12.383Z,77.77
2023-03-06T07:26:15.467Z,77.93
2023-03-06T07:31:23.196Z,76.93
2023-03-06T07:36:26.623Z,76.06
2023-03-06T07:41:32.131Z,76.49
2023-03-06T07:46:35.837Z,76.17
2023-03-06T07:51:49.216Z,75.23
2023-03-06T07:56:53.356Z,75.00
2023-03-06T08:02:01.803Z,73.39
2023-03-06T08:07:07.677Z,73.95
2023-03-06T08:12:15.144Z,73.88
2023-03-06T08:17:18.893Z,73.19
2023-03-06T08:22:21.972Z,72.46
2023-03-06T08:27:30.552Z,71.62
2023-03-06T08:32:38.083Z,71.11
2023-03-06T08:37:41.568Z,70.32
2023-03-06T08:42:47.469Z,70.71
2023-03-06T08:47:50.513Z,69.47
2023-03-06T08:52:53.724Z,69.04
2023-03-06T08:57:57.535Z,67.82
2023-03-06T09:03:00.968Z,67.83
2023-03-06T09:08:03.897Z,66.83
2023-03-06T09:13:07.216Z,65.87
2023-03-06T09:18:10.399Z,64.94
2023-03-06T09:23:13.902Z,64.54
2023-03-06T09:28:18.026Z,64.22
2023-03-06T09:33:22.094Z,63.67
2023-03-06T09:38:28.211Z,62.45
2023-03-06T09:43:51.752Z,61.06
2023-03-06T09:49:23.250Z,57.83
2023-03-06T09:54:47.805Z,58.15
2023-03-06T09:59:59.132Z,57.68
2023-03-06T10:05:15.170Z,56.12
2023-03-06T10:10:27.132Z,55.26
2023-03-06T10:15:39.532Z,53.83
2023-03-06T10:21:19.593Z,53.30
2023-03-06T10:26:34.462Z,53.27
2023-03-06T10:31:44.674Z,49.97
2023-03-06T10:36:48.599Z,50.46
2023-03-06T10:41:51.841Z,50.24
2023-03-06T10:46:56.445Z,50.77
2023-03-06T10:52:21.945Z,49.83
2023-03-06T10:57:32.795Z,50.42
2023-03-06T11:02:41.209Z,49.10
2023-03-06T11:07:57.673Z,48.50
2023-03-06T11:13:19.415Z,46.67
2023-03-06T11:18:40.076Z,46.67
2023-03-06T11:23:47.682Z,46.17
2023-03-06T11:29:29.398Z,46.19
2023-03-06T11:34:44.924Z,45.69
2023-03-06T11:40:06.548Z,45.94
2023-03-06T11:45:44.048Z,46.08
2023-03-06T11:50:52.690Z,46.01
2023-03-06T11:56:29.462Z,45.38
2023-03-06T12:01:37.628Z,45.67
2023-03-06T12:06:41.058Z,44.74
2023-03-06T12:11:59.318Z,45.16
2023-03-06T12:17:08.219Z,45.13
2023-03-06T12:22:57.520Z,45.35
2023-03-06T12:28:11.549Z,44.99
2023-03-06T12:34:07.782Z,44.65
2023-03-06T12:39:54.604Z,43.16
2023-03-06T12:45:33.208Z,44.46
2023-03-06T12:50:38.298Z,43.44
2023-03-06T12:55:49.210Z,42.87
2023-03-06T13:01:20.205Z,43.11
2023-03-06T13:07:03.865Z,42.67
2023-03-06T13:12:16.032Z,43.44
2023-03-06T13:17:39.230Z,43.26
2023-03-06T13:22:46.294Z,42.38
2023-03-06T13:27:52.273Z,43.51
2023-03-06T13:32:56.574Z,42.30
2023-03-06T13:38:00.913Z,42.22
2023-03-06T13:43:09.072Z,41.36
2023-03-06T13:48:45.805Z,42.86
2023-03-06T13:54:17.226Z,43.43
2023-03-06T14:00:09.528Z,42.69
2023-03-06T14:05:17.010Z,43.22
2023-03-06T14:10:26.211Z,43.71
2023-03-06T14:15:45.479Z,43.65
2023-03-06T14:21:04.777Z,44.02
2023-03-06T14:26:24.615Z,44.63
2023-03-06T14:31:41.304Z,44.29
2023-03-06T14:36:51.401Z,44.77
2023-03-06T14:42:25.915Z,44.85
2023-03-06T14:47:42.883Z,45.31
2023-03-06T14:52:47.088Z,45.86
2023-03-06T14:57:58.518Z,46.16
2023-03-06T15:03:06.795Z,45.98
2023-03-06T15:08:10.349Z,46.58
2023-03-06T15:13:26.610Z,46.76
2023-03-06T15:18:39.089Z,47.04
2023-03-06T15:23:48.541Z,47.38
2023-03-06T15:29:23.504Z,47.78
2023-03-06T15:34:41.933Z,47.99
2023-03-06T15:39:48.924Z,48.34
2023-03-06T15:45:00.528Z,48.60
2023-03-06T15:50:04.376Z,48.76
2023-03-06T15:55:20.220Z,48.88
2023-03-06T16:00:30.932Z,49.13
2023-03-06T16:05:34.155Z,49.31
2023-03-06T16:10:46.709Z,49.56
2023-03-06T16:15:54.534Z,49.63
2023-03-06T16:20:57.701Z,49.72
2023-03-06T16:26:01.517Z,49.88
2023-03-06T16:31:07.569Z,49.94
2023-03-06T16:36:27.826Z,50.17
2023-03-06T16:41:31.463Z,50.49
2023-03-06T16:46:42.932Z,51.71
2023-03-06T16:51:56.104Z,52.62
2023-03-06T16:57:00.676Z,53.69
2023-03-06T17:02:03.933Z,54.71
2023-03-06T17:07:07.214Z,54.90
2023-03-06T17:12:10.381Z,55.96
2023-03-06T17:17:13.479Z,56.73
2023-03-06T17:22:19.036Z,57.22
2023-03-06T17:27:23.058Z,56.97
2023-03-06T17:32:27.327Z,57.19
2023-03-06T17:37:32.235Z,56.85
2023-03-06T17:42:59.249Z,57.15
2023-03-06T17:48:03.624Z,57.61
2023-03-06T17:53:07.086Z,57.88
2023-03-06T17:58:12.318Z,58.35
2023-03-06T18:03:22.481Z,58.47
2023-03-06T18:08:38.585Z,58.33
2023-03-06T18:13:46.851Z,59.05
2023-03-06T18:18:58.492Z,59.44
2023-03-06T18:24:01.452Z,59.49
2023-03-06T18:29:05.143Z,59.76
2023-03-06T18:34:13.481Z,60.59
2023-03-06T18:39:16.688Z,61.07
2023-03-06T18:44:23.880Z,61.63
2023-03-06T18:49:35.293Z,61.47
2023-03-06T18:54:39.014Z,61.48
2023-03-06T18:59:43.468Z,61.94
2023-03-06T19:04:48.099Z,62.74
2023-03-06T19:09:56.088Z,63.17
2023-03-06T19:14:59.104Z,63.23
2023-03-06T19:20:05.003Z,63.41
2023-03-06T19:25:10.125Z,63.81
2023-03-06T19:30:15.717Z,63.54
2023-03-06T19:35:21.952Z,63.46
2023-03-06T19:40:25.614Z,63.60
2023-03-06T19:45:31.064Z,63.47
2023-03-06T19:50:34.697Z,63.88
2023-03-06T19:55:38.587Z,64.06
2023-03-06T20:00:42.064Z,64.05
2023-03-06T20:05:48.121Z,64.32
2023-03-06T20:10:51.048Z,64.46
2023-03-06T20:15:55.160Z,64.50
2023-03-06T20:21:03.869Z,64.56
2023-03-06T20:26:11.932Z,64.59
2023-03-06T20:31:19.177Z,64.65
2023-03-06T20:36:31.342Z,64.78
2023-03-06T20:41:35.532Z,64.92
2023-03-06T20:46:39.987Z,64.92
2023-03-06T20:51:43.994Z,65.03
2023-03-06T20:56:49.164Z,65.14
2023-03-06T21:01:53.330Z,65.05
2023-03-06T21:06:56.448Z,65.12
2023-03-06T21:12:00.265Z,66.66
2023-03-06T21:17:03.406Z,70.95
2023-03-06T21:22:06.503Z,70.78
2023-03-06T21:27:09.620Z,67.89
2023-03-06T21:32:12.616Z,68.17
2023-03-06T21:37:15.694Z,68.43
2023-03-06T21:42:18.640Z,67.74
2023-03-06T21:47:21.542Z,67.63
2023-03-06T21:52:26.465Z,67.63
2023-03-06T21:57:29.630Z,67.77
2023-03-06T22:02:32.499Z,67.79
2023-03-06T22:07:39.367Z,67.83
2023-03-06T22:12:42.330Z,68.01
2023-03-06T22:17:45.541Z,68.31
2023-03-06T22:22:48.452Z,68.36
2023-03-06T22:27:51.451Z,68.65
2023-03-06T22:32:54.615Z,68.60
2023-03-06T22:37:58.781Z,68.94
2023-03-06T22:43:01.803Z,68.98
2023-03-06T22:48:11.063Z,69.33
2023-03-06T22:53:14.246Z,69.74
2023-03-06T22:58:17.142Z,69.53
2023-03-06T23:03:20.004Z,69.57
2023-03-06T23:08:23.044Z,69.47
2023-03-06T23:13:26.082Z,69.38
2023-03-06T23:18:29.887Z,69.44
2023-03-06T23:23:32.779Z,69.53
2023-03-06T23:28:36.002Z,69.72
2023-03-06T23:33:39.200Z,70.04
2023-03-06T23:38:42.789Z,70.29
2023-03-06T23:43:47.891Z,70.35
2023-03-06T23:48:50.792Z,70.36
2023-03-06T23:53:58.305Z,70.43
2023-03-06T23:59:01.452Z,70.58
